Time;durP1;ratioP1;P1;durP2;ratioP2;P2;SDS_P1;SDS_P2;PMS_P1;PMS_P2;Temp;Humidity;BMP_temperature;BMP_pressure;BME280_temperature;BME280_humidity;BME280_pressure;Samples;Min_cycle;Max_cycle;Signal;HPM_P1;HPM_P2
2023/08/11 00:02:17;;;;;;;;;;;;;;;;;;5071286;28;19916;-65
2023/08/11 00:04:43;;;;;;;;;;;;;;;;;;5072310;28;20380;-65
2023/08/11 00:07:09;;;;;;;;;;;;;;;;;;5070273;28;19938;-68
2023/08/11 00:09:35;;;;;;;;;;;;;;;;;;5053923;28;19924;-68
2023/08/11 00:12:01;;;;;;;;;;;;;;;;;;5069395;28;19920;-68
2023/08/11 00:14:27;;;;;;;;;;;;;;;;;;5060083;28;19917;-68
2023/08/11 00:16:53;;;;;;;;;;;;;;;;;;5070126;28;20454;-69
2023/08/11 00:19:19;;;;;;;;;;;;;;;;;;5071450;28;19932;-69
2023/08/11 00:21:45;;;;;;;;;;;;;;;;;;5056364;28;19963;-69
2023/08/11 00:24:11;;;;;;;;;;;;;;;;;;5059763;28;19944;-69
2023/08/11 00:26:37;;;;;;;;;;;;;;;;;;5067602;28;19999;-69
2023/08/11 00:29:03;;;;;;;;;;;;;;;;;;5060957;28;19917;-69
2023/08/11 00:31:29;;;;;;;;;;;;;;;;;;5063776;28;20284;-68
2023/08/11 00:33:55;;;;;;;;;;;;;;;;;;5072286;28;19946;-69
2023/08/11 00:36:20;;;;;;;;;;;;;;;;;;5072059;28;19995;-69
2023/08/11 00:38:46;;;;;;;;;;;;;;;;;;5072206;28;19961;-69
2023/08/11 00:41:14;;;;;;;;;;;;;;;;;;5072064;28;19912;-68
2023/08/11 00:43:40;;;;;;;;;;;;;;;;;;5066845;28;19923;-69
2023/08/11 00:46:06;;;;;;;;;;;;;;;;;;5057679;28;20419;-69
2023/08/11 00:48:32;;;;;;;;;;;;;;;;;;5064379;28;20003;-68
2023/08/11 00:50:58;;;;;;;;;;;;;;;;;;5070166;28;19919;-69
2023/08/11 00:53:24;;;;;;;;;;;;;;;;;;5066394;28;20365;-69
2023/08/11 00:55:50;;;;;;;;;;;;;;;;;;5052307;28;19913;-68
2023/08/11 00:58:16;;;;;;;;;;;;;;;;;;5079166;28;20694;-68
2023/08/11 01:00:43;;;;;;;;;;;;;;;;;;5052705;28;20384;-65
2023/08/11 01:03:09;;;;;;;;;;;;;;;;;;5068080;28;19919;-65
2023/08/11 01:05:35;;;;;;;;;;;;;;;;;;5075496;28;19956;-65
2023/08/11 01:08:03;;;;;;;;;;;;;;;;;;5075585;28;20328;-66
2023/08/11 01:10:29;;;;;;;;;;;;;;;;;;5074974;28;19909;-65
2023/08/11 01:12:55;;;;;;;;;;;;;;;;;;5075265;28;19924;-65
2023/08/11 01:15:21;;;;;;;;;;;;;;;;;;5074500;28;20278;-65
2023/08/11 01:17:47;;;;;;;;;;;;;;;;;;5055642;28;19913;-65
2023/08/11 01:20:15;;;;;;;;;;;;;;;;;;5057336;28;19964;-65
2023/08/11 01:22:41;;;;;;;;;;;;;;;;;;5075243;28;20395;-65
2023/08/11 01:25:08;;;;;;;;;;;;;;;;;;5074956;28;19963;-65
2023/08/11 01:27:33;;;;;;;;;;;;;;;;;;5073514;28;19935;-65
2023/08/11 01:29:59;;;;;;;;;;;;;;;;;;5073307;28;19916;-65
2023/08/11 01:32:25;;;;;;;;;;;;;;;;;;5067589;28;19922;-65
2023/08/11 01:34:51;;;;;;;;;;;;;;;;;;5075142;28;20261;-65
2023/08/11 01:37:17;;;;;;;;;;;;;;;;;;5073611;28;19912;-65
2023/08/11 01:39:43;;;;;;;;;;;;;;;;;;5074652;28;19908;-66
2023/08/11 01:42:10;;;;;;;;;;;;;;;;;;5068345;28;19951;-65
2023/08/11 01:44:35;;;;;;;;;;;;;;;;;;5065356;28;19924;-65
2023/08/11 01:47:01;;;;;;;;;;;;;;;;;;5074833;28;20008;-66
2023/08/11 01:49:27;;;;;;;;;;;;;;;;;;5075343;28;19935;-65
2023/08/11 01:51:53;;;;;;;;;;;;;;;;;;5057744;28;19927;-65
2023/08/11 01:54:19;;;;;;;;;;;;;;;;;;5054571;28;19963;-65
2023/08/11 01:56:45;;;;;;;;;;;;;;;;;;5069982;28;19923;-65
2023/08/11 01:59:11;;;;;;;;;;;;;;;;;;5074046;28;19967;-66
2023/08/11 02:01:38;;;;;;;;;;;;;;;;;;5071564;28;19916;-66
2023/08/11 02:04:04;;;;;;;;;;;;;;;;;;5061259;28;19916;-65
2023/08/11 02:06:30;;;;;;;;;;;;;;;;;;5067612;28;20009;-65
2023/08/11 02:08:56;;;;;;;;;;;;;;;;;;5073606;28;20279;-65
2023/08/11 02:11:22;;;;;;;;;;;;;;;;;;5073067;28;19958;-66
2023/08/11 02:13:48;;;;;;;;;;;;;;;;;;5070918;28;19916;-65
2023/08/11 02:16:14;;;;;;;;;;;;;;;;;;5072515;28;19933;-66
2023/08/11 02:18:40;;;;;;;;;;;;;;;;;;5073495;28;19919;-65
2023/08/11 02:21:10;;;;;;;;;;;;;;;;;;5072113;28;19955;-66
2023/08/11 02:23:35;;;;;;;;;;;;;;;;;;5070031;28;21059;-65
2023/08/11 02:26:01;;;;;;;;;;;;;;;;;;5061806;28;19916;-65
2023/08/11 02:28:27;;;;;;;;;;;;;;;;;;5071248;28;19923;-65
2023/08/11 02:30:54;;;;;;;;;;;;;;;;;;5064609;28;19912;-65
2023/08/11 02:33:20;;;;;;;;;;;;;;;;;;5068698;28;19913;-65
2023/08/11 02:35:46;;;;;;;;;;;;;;;;;;5068990;28;19912;-66
2023/08/11 02:38:13;;;;;;;;;;;;;;;;;;5065421;28;19916;-65
2023/08/11 02:40:39;;;;;;;;;;;;;;;;;;5062269;28;19912;-65
2023/08/11 02:43:07;;;;;;;;;;;;;;;;;;5059374;28;20006;-65
2023/08/11 02:45:32;;;;;;;;;;;;;;;;;;5066801;28;19959;-65
2023/08/11 02:47:58;;;;;;;;;;;;;;;;;;5072960;28;20005;-65
2023/08/11 02:50:24;;;;;;;;;;;;;;;;;;5070416;28;19912;-66
2023/08/11 02:52:50;;;;;;;;;;;;;;;;;;5068239;28;19923;-65
2023/08/11 02:55:16;;;;;;;;;;;;;;;;;;5065419;28;19919;-65
2023/08/11 02:57:42;;;;;;;;;;;;;;;;;;5069519;28;20375;-65
2023/08/11 03:00:12;;;;;;;;;;;;;;;;;;5071864;28;19912;-66
2023/08/11 03:02:38;;;;;;;;;;;;;;;;;;5062220;28;19916;-65
2023/08/11 03:05:06;;;;;;;;;;;;;;;;;;5060285;28;19924;-66
2023/08/11 03:07:32;;;;;;;;;;;;;;;;;;5073325;28;20356;-65
2023/08/11 03:09:58;;;;;;;;;;;;;;;;;;5072933;28;20016;-66
2023/08/11 03:12:24;;;;;;;;;;;;;;;;;;5053220;28;19992;-66
2023/08/11 03:14:50;;;;;;;;;;;;;;;;;;5073154;28;20376;-65
2023/08/11 03:17:16;;;;;;;;;;;;;;;;;;5058543;28;19917;-65
2023/08/11 03:19:42;;;;;;;;;;;;;;;;;;5060365;28;20292;-66
2023/08/11 03:22:08;;;;;;;;;;;;;;;;;;5072825;28;19913;-66
2023/08/11 03:24:34;;;;;;;;;;;;;;;;;;5072406;28;20380;-65
2023/08/11 03:27:00;;;;;;;;;;;;;;;;;;5072791;28;20326;-73
2023/08/11 03:29:26;;;;;;;;;;;;;;;;;;5069593;28;19916;-71
2023/08/11 03:31:51;;;;;;;;;;;;;;;;;;5073078;28;20402;-73
2023/08/11 03:34:17;;;;;;;;;;;;;;;;;;5066689;28;20007;-73
2023/08/11 03:36:44;;;;;;;;;;;;;;;;;;5070628;28;19916;-72
2023/08/11 03:39:10;;;;;;;;;;;;;;;;;;5072801;28;19915;-72
2023/08/11 03:41:36;;;;;;;;;;;;;;;;;;5059437;28;20359;-73
2023/08/11 03:44:02;;;;;;;;;;;;;;;;;;5072420;28;19970;-73
2023/08/11 03:46:28;;;;;;;;;;;;;;;;;;5072305;28;20325;-72
2023/08/11 03:48:54;;;;;;;;;;;;;;;;;;5072215;28;19920;-73
2023/08/11 03:51:20;;;;;;;;;;;;;;;;;;5070085;28;20009;-73
2023/08/11 03:53:45;;;;;;;;;;;;;;;;;;5069855;28;20010;-73
2023/08/11 03:56:12;;;;;;;;;;;;;;;;;;5065109;28;19916;-73
2023/08/11 03:58:38;;;;;;;;;;;;;;;;;;5070985;28;19924;-73
2023/08/11 04:01:04;;;;;;;;;;;;;;;;;;5068092;28;19916;-72
2023/08/11 04:03:31;;;;;;;;;;;;;;;;;;5062951;28;20053;-73
2023/08/11 04:05:56;;;;;;;;;;;;;;;;;;5067072;28;19962;-73
2023/08/11 04:08:23;;;;;;;;;;;;;;;;;;5066523;28;20291;-73
2023/08/11 04:10:49;;;;;;;;;;;;;;;;;;5068892;28;19919;-72
2023/08/11 04:13:15;;;;;;;;;;;;;;;;;;5071088;28;20375;-72
2023/08/11 04:15:41;;;;;;;;;;;;;;;;;;5067449;28;20004;-72
2023/08/11 04:18:06;;;;;;;;;;;;;;;;;;5067008;28;19999;-72
2023/08/11 04:20:33;;;;;;;;;;;;;;;;;;5066324;28;20353;-71
2023/08/11 04:22:59;;;;;;;;;;;;;;;;;;5070419;28;20001;-72
2023/08/11 04:25:25;;;;;;;;;;;;;;;;;;5071347;28;19986;-72
2023/08/11 04:27:51;;;;;;;;;;;;;;;;;;5071046;28;19913;-72
2023/08/11 04:30:17;;;;;;;;;;;;;;;;;;5069536;28;19912;-73
2023/08/11 04:32:43;;;;;;;;;;;;;;;;;;5070982;28;20356;-72
2023/08/11 04:35:09;;;;;;;;;;;;;;;;;;5071243;28;19994;-72
2023/08/11 04:37:35;;;;;;;;;;;;;;;;;;5075142;28;19917;-63
2023/08/11 04:40:05;;;;;;;;;;;;;;;;;;5074872;28;19952;-63
2023/08/11 04:42:31;;;;;;;;;;;;;;;;;;5073579;28;20048;-63
2023/08/11 04:44:57;;;;;;;;;;;;;;;;;;5074825;28;20025;-63
2023/08/11 04:47:23;;;;;;;;;;;;;;;;;;5072808;28;19918;-63
2023/08/11 04:49:49;;;;;;;;;;;;;;;;;;5074703;28;19908;-62
2023/08/11 04:52:15;;;;;;;;;;;;;;;;;;5073633;28;20007;-63
2023/08/11 04:54:40;;;;;;;;;;;;;;;;;;5075788;28;19915;-63
2023/08/11 04:57:06;;;;;;;;;;;;;;;;;;5074447;28;20280;-63
2023/08/11 04:59:32;;;;;;;;;;;;;;;;;;5074613;28;19965;-63
2023/08/11 05:01:59;;;;;;;;;;;;;;;;;;5070056;28;19951;-63
2023/08/11 05:04:24;;;;;;;;;;;;;;;;;;5074647;28;19916;-64
2023/08/11 05:06:51;;;;;;;;;;;;;;;;;;5074637;28;19928;-63
2023/08/11 05:09:17;;;;;;;;;;;;;;;;;;5066914;28;19986;-64
2023/08/11 05:11:42;;;;;;;;;;;;;;;;;;5070841;28;20364;-63
2023/08/11 05:14:08;;;;;;;;;;;;;;;;;;5074285;28;20368;-63
2023/08/11 05:16:34;;;;;;;;;;;;;;;;;;5065460;28;19959;-63
2023/08/11 05:19:00;;;;;;;;;;;;;;;;;;5074510;28;20007;-64
2023/08/11 05:21:26;;;;;;;;;;;;;;;;;;5074052;28;20025;-63
2023/08/11 05:23:52;;;;;;;;;;;;;;;;;;5074384;28;19909;-63
2023/08/11 05:26:18;;;;;;;;;;;;;;;;;;5070393;28;20288;-63
2023/08/11 05:28:44;;;;;;;;;;;;;;;;;;5073187;28;19963;-63
2023/08/11 05:31:10;;;;;;;;;;;;;;;;;;5073380;28;19940;-63
2023/08/11 05:33:36;;;;;;;;;;;;;;;;;;5074302;28;20026;-63
2023/08/11 05:36:02;;;;;;;;;;;;;;;;;;5074035;28;19955;-62
2023/08/11 05:38:28;;;;;;;;;;;;;;;;;;5074438;28;19955;-64
2023/08/11 05:40:54;;;;;;;;;;;;;;;;;;5068475;28;19912;-63
2023/08/11 05:43:20;;;;;;;;;;;;;;;;;;5073839;28;20034;-64
2023/08/11 05:45:46;;;;;;;;;;;;;;;;;;5073388;28;20438;-63
2023/08/11 05:48:12;;;;;;;;;;;;;;;;;;5073937;28;19915;-63
2023/08/11 05:50:38;;;;;;;;;;;;;;;;;;5073079;28;20288;-63
2023/08/11 05:53:04;;;;;;;;;;;;;;;;;;5073863;28;19955;-63
2023/08/11 05:55:30;;;;;;;;;;;;;;;;;;5065229;28;19913;-63
2023/08/11 05:57:56;;;;;;;;;;;;;;;;;;5073302;28;19973;-63
2023/08/11 06:00:22;;;;;;;;;;;;;;;;;;5073098;28;19916;-63
2023/08/11 06:02:48;;;;;;;;;;;;;;;;;;5069704;28;20393;-63
2023/08/11 06:05:15;;;;;;;;;;;;;;;;;;5062871;28;19930;-63
2023/08/11 06:07:41;;;;;;;;;;;;;;;;;;5070899;28;19913;-64
2023/08/11 06:10:06;;;;;;;;;;;;;;;;;;5063958;28;19917;-63
2023/08/11 06:12:32;;;;;;;;;;;;;;;;;;5064268;28;20445;-63
2023/08/11 06:14:58;;;;;;;;;;;;;;;;;;5067416;28;19916;-63
2023/08/11 06:17:24;;;;;;;;;;;;;;;;;;5065004;28;19912;-63
2023/08/11 06:19:50;;;;;;;;;;;;;;;;;;5072641;28;19921;-63
2023/08/11 06:22:16;;;;;;;;;;;;;;;;;;5071886;28;19946;-65
2023/08/11 06:24:42;;;;;;;;;;;;;;;;;;5073344;28;20329;-63
2023/08/11 06:27:09;;;;;;;;;;;;;;;;;;5064386;28;20003;-63
2023/08/11 06:29:35;;;;;;;;;;;;;;;;;;5059066;28;19982;-63
2023/08/11 06:32:01;;;;;;;;;;;;;;;;;;5062298;28;19913;-63
2023/08/11 06:34:27;;;;;;;;;;;;;;;;;;5073074;28;19917;-63
2023/08/11 06:36:53;;;;;;;;;;;;;;;;;;5072932;28;19991;-63
2023/08/11 06:39:19;;;;;;;;;;;;;;;;;;5064763;28;20317;-63
2023/08/11 06:41:45;;;;;;;;;;;;;;;;;;5064612;28;19947;-63
2023/08/11 06:44:11;;;;;;;;;;;;;;;;;;5065031;28;19947;-64
2023/08/11 06:46:37;;;;;;;;;;;;;;;;;;5067672;28;20286;-63
2023/08/11 06:49:03;;;;;;;;;;;;;;;;;;5068510;28;19966;-63
2023/08/11 06:51:29;;;;;;;;;;;;;;;;;;5062586;28;19951;-64
2023/08/11 06:53:55;;;;;;;;;;;;;;;;;;5072721;28;19912;-63
2023/08/11 06:56:20;;;;;;;;;;;;;;;;;;5072305;28;20341;-63
2023/08/11 06:58:46;;;;;;;;;;;;;;;;;;5064748;28;19972;-63
2023/08/11 07:01:14;;;;;;;;;;;;;;;;;;5057204;28;19948;-63
2023/08/11 07:03:40;;;;;;;;;;;;;;;;;;5067885;28;19919;-64
2023/08/11 07:06:06;;;;;;;;;;;;;;;;;;5067950;28;20349;-63
2023/08/11 07:08:32;;;;;;;;;;;;;;;;;;5069769;28;20003;-64
2023/08/11 07:10:58;;;;;;;;;;;;;;;;;;5066287;28;19926;-65
2023/08/11 07:13:23;;;;;;;;;;;;;;;;;;5065063;28;20268;-64
2023/08/11 07:15:49;;;;;;;;;;;;;;;;;;5059450;28;19912;-63
2023/08/11 07:18:15;;;;;;;;;;;;;;;;;;5054163;28;19913;-66
2023/08/11 07:20:41;;;;;;;;;;;;;;;;;;5069161;28;20011;-63
2023/08/11 07:23:07;;;;;;;;;;;;;;;;;;5072216;28;19913;-65
2023/08/11 07:25:33;;;;;;;;;;;;;;;;;;5067843;28;20015;-63
2023/08/11 07:27:59;;;;;;;;;;;;;;;;;;5069070;28;20015;-63
2023/08/11 07:30:25;;;;;;;;;;;;;;;;;;5065932;28;19977;-63
2023/08/11 07:32:51;;;;;;;;;;;;;;;;;;5058733;28;19917;-63
2023/08/11 07:35:17;;;;;;;;;;;;;;;;;;5065705;28;19931;-64
2023/08/11 07:37:43;;;;;;;;;;;;;;;;;;5067059;28;19913;-63
2023/08/11 07:40:09;;;;;;;;;;;;;;;;;;5064982;28;20378;-64
2023/08/11 07:42:35;;;;;;;;;;;;;;;;;;5071372;28;19916;-64
2023/08/11 07:45:01;;;;;;;;;;;;;;;;;;5058784;28;20420;-64
2023/08/11 07:47:27;;;;;;;;;;;;;;;;;;5061087;28;20004;-64
2023/08/11 07:49:53;;;;;;;;;;;;;;;;;;5071288;28;19995;-65
2023/08/11 07:52:18;;;;;;;;;;;;;;;;;;5070158;28;19955;-64
2023/08/11 07:54:44;;;;;;;;;;;;;;;;;;5070067;28;20278;-64
2023/08/11 07:57:10;;;;;;;;;;;;;;;;;;5065139;28;19920;-64
2023/08/11 07:59:36;;;;;;;;;;;;;;;;;;5069102;28;20387;-66
2023/08/11 08:02:03;;;;;;;;;;;;;;;;;;5073897;28;19946;-64
2023/08/11 08:04:29;;;;;;;;;;;;;;;;;;5072351;28;19920;-64
2023/08/11 08:06:55;;;;;;;;;;;;;;;;;;5070045;28;20000;-75
2023/08/11 08:09:21;;;;;;;;;;;;;;;;;;5071362;28;20002;-75
2023/08/11 08:11:48;;;;;;;;;;;;;;;;;;5070961;28;20364;-73
2023/08/11 08:14:14;;;;;;;;;;;;;;;;;;5065066;28;19927;-75
2023/08/11 08:16:46;;;;;;;;;;;;;;;;;;5063640;28;20420;-74
2023/08/11 08:19:14;;;;;;;;;;;;;;;;;;5073672;28;19924;-72
2023/08/11 08:21:41;;;;;;;;;;;;;;;;;;5069294;28;19941;-74
2023/08/11 08:24:07;;;;;;;;;;;;;;;;;;5071469;28;19970;-74
2023/08/11 08:26:34;;;;;;;;;;;;;;;;;;5071140;28;19912;-75
2023/08/11 08:29:00;;;;;;;;;;;;;;;;;;5071813;28;19909;-74
2023/08/11 08:31:26;;;;;;;;;;;;;;;;;;5070808;28;20003;-75
2023/08/11 08:33:52;;;;;;;;;;;;;;;;;;5071232;28;20361;-75
2023/08/11 08:36:18;;;;;;;;;;;;;;;;;;5071372;28;19913;-75
2023/08/11 08:38:44;;;;;;;;;;;;;;;;;;5064444;28;20016;-74
2023/08/11 08:41:10;;;;;;;;;;;;;;;;;;5070643;28;20435;-71
2023/08/11 08:43:36;;;;;;;;;;;;;;;;;;5067153;28;19935;-72
2023/08/11 08:46:02;;;;;;;;;;;;;;;;;;5066358;28;19946;-75
2023/08/11 08:48:28;;;;;;;;;;;;;;;;;;5062729;28;19927;-70
2023/08/11 08:50:54;;;;;;;;;;;;;;;;;;5059080;28;19919;-73
2023/08/11 08:53:20;;;;;;;;;;;;;;;;;;5061070;28;19920;-74
2023/08/11 08:55:46;;;;;;;;;;;;;;;;;;5069292;28;19970;-73
2023/08/11 08:58:14;;;;;;;;;;;;;;;;;;5069747;28;19944;-74
2023/08/11 09:00:40;;;;;;;;;;;;;;;;;;5069391;28;20288;-73
2023/08/11 09:03:06;;;;;;;;;;;;;;;;;;5061859;28;19955;-70
2023/08/11 09:05:32;;;;;;;;;;;;;;;;;;5062225;28;19920;-73
2023/08/11 09:07:58;;;;;;;;;;;;;;;;;;5061476;28;19956;-74
2023/08/11 09:10:24;;;;;;;;;;;;;;;;;;5068310;28;19931;-73
2023/08/11 09:12:50;;;;;;;;;;;;;;;;;;5061918;28;20018;-73
2023/08/11 09:15:16;;;;;;;;;;;;;;;;;;5061181;28;19921;-73
2023/08/11 09:17:42;;;;;;;;;;;;;;;;;;5070840;28;19999;-72
2023/08/11 09:20:09;;;;;;;;;;;;;;;;;;5063977;28;19920;-73
2023/08/11 09:22:38;;;;;;;;;;;;;;;;;;5063575;28;19917;-74
2023/08/11 09:25:03;;;;;;;;;;;;;;;;;;5060551;28;19917;-73
2023/08/11 09:27:30;;;;;;;;;;;;;;;;;;5068261;28;19948;-73
2023/08/11 09:29:56;;;;;;;;;;;;;;;;;;5071639;28;19908;-74
2023/08/11 09:32:23;;;;;;;;;;;;;;;;;;5062041;28;19924;-73
2023/08/11 09:34:48;;;;;;;;;;;;;;;;;;5062798;28;19912;-74
2023/08/11 09:37:14;;;;;;;;;;;;;;;;;;5070944;28;20006;-73
2023/08/11 09:39:42;;;;;;;;;;;;;;;;;;5072390;28;20372;-73
2023/08/11 09:42:08;;;;;;;;;;;;;;;;;;5062126;28;19913;-72
2023/08/11 09:44:34;;;;;;;;;;;;;;;;;;5057156;28;20001;-69
2023/08/11 09:47:00;;;;;;;;;;;;;;;;;;5067141;28;20387;-72
2023/08/11 09:49:26;;;;;;;;;;;;;;;;;;5073760;28;19922;-74
2023/08/11 09:51:52;;;;;;;;;;;;;;;;;;5061759;28;20292;-73
2023/08/11 09:54:18;;;;;;;;;;;;;;;;;;5069344;28;20308;-74
2023/08/11 09:56:44;;;;;;;;;;;;;;;;;;5060580;28;20385;-74
2023/08/11 09:59:09;;;;;;;;;;;;;;;;;;5061346;28;19945;-73
2023/08/11 10:01:36;;;;;;;;;;;;;;;;;;5066941;28;19951;-74
2023/08/11 10:04:01;;;;;;;;;;;;;;;;;;5063806;28;19956;-74
2023/08/11 10:06:28;;;;;;;;;;;;;;;;;;5074181;28;19959;-74
2023/08/11 10:08:54;;;;;;;;;;;;;;;;;;5064338;28;19958;-73
2023/08/11 10:11:20;;;;;;;;;;;;;;;;;;5064606;28;19920;-71
2023/08/11 10:13:45;;;;;;;;;;;;;;;;;;5067580;28;20513;-73
2023/08/11 10:16:12;;;;;;;;;;;;;;;;;;5059925;28;20530;-71
2023/08/11 10:18:38;;;;;;;;;;;;;;;;;;5062820;28;20003;-72
2023/08/11 10:21:04;;;;;;;;;;;;;;;;;;5067089;28;20086;-68
2023/08/11 10:23:30;;;;;;;;;;;;;;;;;;5057958;28;19913;-73
2023/08/11 10:25:56;;;;;;;;;;;;;;;;;;5077653;28;19924;-62
2023/08/11 10:28:22;;;;;;;;;;;;;;;;;;5071477;28;19951;-64
2023/08/11 10:30:48;;;;;;;;;;;;;;;;;;5063695;28;19963;-64
2023/08/11 10:33:14;;;;;;;;;;;;;;;;;;5065423;28;19965;-62
2023/08/11 10:35:40;;;;;;;;;;;;;;;;;;5066737;28;19912;-63
2023/08/11 10:38:05;;;;;;;;;;;;;;;;;;5069254;28;20251;-63
2023/08/11 10:40:31;;;;;;;;;;;;;;;;;;5066220;28;19959;-63
2023/08/11 10:42:57;;;;;;;;;;;;;;;;;;5067955;28;19923;-63
2023/08/11 10:45:23;;;;;;;;;;;;;;;;;;5066268;28;19920;-64
2023/08/11 10:47:49;;;;;;;;;;;;;;;;;;5064501;28;19950;-65
2023/08/11 10:50:15;;;;;;;;;;;;;;;;;;5059840;28;20434;-62
2023/08/11 10:52:41;;;;;;;;;;;;;;;;;;5058647;28;19913;-64
2023/08/11 10:55:07;;;;;;;;;;;;;;;;;;5057321;28;19923;-61
2023/08/11 10:57:33;;;;;;;;;;;;;;;;;;5056703;28;20387;-63
2023/08/11 10:59:59;;;;;;;;;;;;;;;;;;5070301;28;19909;-63
2023/08/11 11:02:25;;;;;;;;;;;;;;;;;;5068407;28;19924;-64
2023/08/11 11:04:51;;;;;;;;;;;;;;;;;;5067700;28;20009;-64
2023/08/11 11:07:17;;;;;;;;;;;;;;;;;;5064852;28;20080;-63
2023/08/11 11:09:43;;;;;;;;;;;;;;;;;;5071913;28;20003;-69
2023/08/11 11:12:09;;;;;;;;;;;;;;;;;;5065230;28;19913;-63
2023/08/11 11:14:36;;;;;;;;;;;;;;;;;;5072184;28;19952;-63
2023/08/11 11:17:03;;;;;;;;;;;;;;;;;;5067572;28;19983;-63
2023/08/11 11:19:29;;;;;;;;;;;;;;;;;;5071851;28;20332;-63
2023/08/11 11:21:55;;;;;;;;;;;;;;;;;;5072014;28;19951;-63
2023/08/11 11:24:21;;;;;;;;;;;;;;;;;;5070220;28;20442;-63
2023/08/11 11:26:47;;;;;;;;;;;;;;;;;;5064551;28;20329;-62
2023/08/11 11:29:13;;;;;;;;;;;;;;;;;;5071710;28;19917;-63
2023/08/11 11:31:38;;;;;;;;;;;;;;;;;;5068733;28;19944;-62
2023/08/11 11:34:04;;;;;;;;;;;;;;;;;;5071787;28;19916;-63
2023/08/11 11:36:31;;;;;;;;;;;;;;;;;;5072045;28;19917;-71
2023/08/11 11:38:57;;;;;;;;;;;;;;;;;;5067025;28;20069;-70
2023/08/11 11:41:23;;;;;;;;;;;;;;;;;;5062910;28;20412;-70
2023/08/11 11:43:49;;;;;;;;;;;;;;;;;;5063522;28;19958;-71
2023/08/11 11:46:14;;;;;;;;;;;;;;;;;;5060219;28;19917;-67
2023/08/11 11:48:40;;;;;;;;;;;;;;;;;;5069277;28;19938;-71
2023/08/11 11:51:06;;;;;;;;;;;;;;;;;;5071581;28;19959;-70
2023/08/11 11:53:32;;;;;;;;;;;;;;;;;;5067465;28;19916;-71
2023/08/11 11:55:58;;;;;;;;;;;;;;;;;;5070397;28;20005;-70
2023/08/11 11:58:25;;;;;;;;;;;;;;;;;;5064196;28;20003;-70
2023/08/11 12:00:51;;;;;;;;;;;;;;;;;;5071417;28;20461;-70
2023/08/11 12:03:18;;;;;;;;;;;;;;;;;;5071296;28;19931;-71
2023/08/11 12:05:43;;;;;;;;;;;;;;;;;;5071712;28;19916;-70
2023/08/11 12:08:09;;;;;;;;;;;;;;;;;;5067979;28;20268;-69
2023/08/11 12:10:36;;;;;;;;;;;;;;;;;;5071267;28;19915;-71
2023/08/11 12:13:03;;;;;;;;;;;;;;;;;;5066780;28;20007;-71
2023/08/11 12:15:28;;;;;;;;;;;;;;;;;;5063822;28;19913;-72
2023/08/11 12:17:55;;;;;;;;;;;;;;;;;;5071405;28;20061;-69
2023/08/11 12:20:21;;;;;;;;;;;;;;;;;;5070965;28;19954;-69
2023/08/11 12:22:46;;;;;;;;;;;;;;;;;;5070559;28;20457;-69
2023/08/11 12:25:12;;;;;;;;;;;;;;;;;;5054493;28;20027;-68
2023/08/11 12:27:38;;;;;;;;;;;;;;;;;;5062998;28;19973;-68
2023/08/11 12:30:04;;;;;;;;;;;;;;;;;;5071004;28;19917;-69
2023/08/11 12:32:30;;;;;;;;;;;;;;;;;;5069692;28;20272;-70
2023/08/11 12:34:57;;;;;;;;;;;;;;;;;;5061741;28;19943;-69
2023/08/11 12:37:23;;;;;;;;;;;;;;;;;;5069643;28;20038;-70
2023/08/11 12:39:48;;;;;;;;;;;;;;;;;;5070830;28;20423;-70
2023/08/11 12:42:14;;;;;;;;;;;;;;;;;;5066388;28;20003;-69
2023/08/11 12:44:41;;;;;;;;;;;;;;;;;;5070685;28;19916;-69
2023/08/11 12:47:07;;;;;;;;;;;;;;;;;;5058419;28;19923;-68
2023/08/11 12:49:33;;;;;;;;;;;;;;;;;;5070875;28;20003;-69
2023/08/11 12:51:58;;;;;;;;;;;;;;;;;;5068466;28;19959;-70
2023/08/11 12:54:24;;;;;;;;;;;;;;;;;;5056927;28;19952;-69
2023/08/11 12:56:50;;;;;;;;;;;;;;;;;;5066838;28;20345;-69
2023/08/11 12:59:16;;;;;;;;;;;;;;;;;;5068176;28;19920;-70
2023/08/11 13:01:42;;;;;;;;;;;;;;;;;;5074406;28;20400;-71
2023/08/11 13:04:08;;;;;;;;;;;;;;;;;;5074659;28;19995;-70
2023/08/11 13:06:34;;;;;;;;;;;;;;;;;;5074506;28;19920;-70
2023/08/11 13:09:00;;;;;;;;;;;;;;;;;;5074644;28;19920;-70
2023/08/11 13:11:26;;;;;;;;;;;;;;;;;;5072890;28;19960;-70
2023/08/11 13:13:52;;;;;;;;;;;;;;;;;;5072884;28;19956;-72
2023/08/11 13:16:18;;;;;;;;;;;;;;;;;;5073040;28;20003;-70
2023/08/11 13:18:44;;;;;;;;;;;;;;;;;;5074368;28;19917;-70
2023/08/11 13:21:10;;;;;;;;;;;;;;;;;;5071762;28;19950;-70
2023/08/11 13:23:36;;;;;;;;;;;;;;;;;;5064616;28;20164;-72
2023/08/11 13:26:02;;;;;;;;;;;;;;;;;;5074203;28;19912;-71
2023/08/11 13:28:28;;;;;;;;;;;;;;;;;;5072562;28;19913;-71
2023/08/11 13:30:54;;;;;;;;;;;;;;;;;;5065824;28;20729;-72
2023/08/11 13:33:20;;;;;;;;;;;;;;;;;;5072661;28;19949;-72
2023/08/11 13:35:47;;;;;;;;;;;;;;;;;;5074166;28;19951;-70
2023/08/11 13:38:14;;;;;;;;;;;;;;;;;;5074186;28;19912;-71
2023/08/11 13:40:40;;;;;;;;;;;;;;;;;;5073730;28;20412;-71
2023/08/11 13:43:06;;;;;;;;;;;;;;;;;;5070908;28;19995;-70
2023/08/11 13:45:32;;;;;;;;;;;;;;;;;;5068734;28;19923;-72
2023/08/11 13:47:58;;;;;;;;;;;;;;;;;;5066232;28;20421;-71
2023/08/11 13:50:24;;;;;;;;;;;;;;;;;;5072658;28;19959;-72
2023/08/11 13:52:50;;;;;;;;;;;;;;;;;;5073870;28;19919;-72
2023/08/11 13:55:16;;;;;;;;;;;;;;;;;;5073869;28;19912;-71
2023/08/11 13:57:44;;;;;;;;;;;;;;;;;;5069887;28;20376;-71
2023/08/11 14:00:12;;;;;;;;;;;;;;;;;;5069674;28;19912;-71
2023/08/11 14:02:38;;;;;;;;;;;;;;;;;;5069008;28;19916;-70
2023/08/11 14:05:04;;;;;;;;;;;;;;;;;;5073329;28;19959;-70
2023/08/11 14:07:29;;;;;;;;;;;;;;;;;;5064585;28;20015;-71
2023/08/11 14:09:55;;;;;;;;;;;;;;;;;;5070010;28;19968;-70
2023/08/11 14:12:21;;;;;;;;;;;;;;;;;;5073410;28;19912;-73
2023/08/11 14:14:47;;;;;;;;;;;;;;;;;;5067190;28;19916;-72
2023/08/11 14:17:13;;;;;;;;;;;;;;;;;;5072407;28;19913;-71
2023/08/11 14:19:39;;;;;;;;;;;;;;;;;;5073019;28;20394;-68
2023/08/11 14:22:05;;;;;;;;;;;;;;;;;;5073034;28;20000;-71
2023/08/11 14:24:31;;;;;;;;;;;;;;;;;;5073074;28;19955;-72
2023/08/11 14:26:57;;;;;;;;;;;;;;;;;;5073257;28;20326;-70
2023/08/11 14:29:23;;;;;;;;;;;;;;;;;;5072925;28;20007;-72
2023/08/11 14:31:49;;;;;;;;;;;;;;;;;;5068157;28;20017;-71
2023/08/11 14:34:14;;;;;;;;;;;;;;;;;;5070090;28;19951;-71
2023/08/11 14:36:40;;;;;;;;;;;;;;;;;;5063267;28;20336;-72
2023/08/11 14:39:06;;;;;;;;;;;;;;;;;;5072861;28;20177;-72
2023/08/11 14:41:32;;;;;;;;;;;;;;;;;;5069219;28;19955;-71
2023/08/11 14:43:58;;;;;;;;;;;;;;;;;;5070967;28;19917;-70
2023/08/11 14:46:24;;;;;;;;;;;;;;;;;;5060286;28;19913;-73
2023/08/11 14:48:50;;;;;;;;;;;;;;;;;;5071695;28;20400;-71
2023/08/11 14:51:16;;;;;;;;;;;;;;;;;;5064140;28;19974;-72
2023/08/11 14:53:42;;;;;;;;;;;;;;;;;;5071484;28;20412;-72
2023/08/11 14:56:08;;;;;;;;;;;;;;;;;;5071345;28;20015;-72
2023/08/11 14:58:38;;;;;;;;;;;;;;;;;;5072299;28;19913;-71
2023/08/11 15:01:04;;;;;;;;;;;;;;;;;;5070670;28;19938;-72
2023/08/11 15:03:30;;;;;;;;;;;;;;;;;;5072409;28;20022;-72
2023/08/11 15:05:56;;;;;;;;;;;;;;;;;;5065369;28;20377;-67
2023/08/11 15:08:21;;;;;;;;;;;;;;;;;;5072265;28;19913;-71
2023/08/11 15:10:47;;;;;;;;;;;;;;;;;;5071975;28;19995;-70
2023/08/11 15:13:13;;;;;;;;;;;;;;;;;;5071258;28;19908;-70
2023/08/11 15:15:39;;;;;;;;;;;;;;;;;;5067261;28;19962;-71
2023/08/11 15:18:05;;;;;;;;;;;;;;;;;;5070085;28;20399;-71
2023/08/11 15:20:31;;;;;;;;;;;;;;;;;;5062086;28;19924;-71
2023/08/11 15:22:57;;;;;;;;;;;;;;;;;;5068093;28;19927;-71
2023/08/11 15:25:23;;;;;;;;;;;;;;;;;;5072164;28;20381;-71
2023/08/11 15:27:49;;;;;;;;;;;;;;;;;;5071975;28;19912;-71
2023/08/11 15:30:15;;;;;;;;;;;;;;;;;;5071547;28;19916;-71
2023/08/11 15:32:41;;;;;;;;;;;;;;;;;;5060960;28;19917;-72
2023/08/11 15:35:08;;;;;;;;;;;;;;;;;;5056051;28;19964;-70
2023/08/11 15:37:34;;;;;;;;;;;;;;;;;;5070084;28;20340;-70
2023/08/11 15:40:00;;;;;;;;;;;;;;;;;;5071522;28;20020;-71
2023/08/11 15:42:26;;;;;;;;;;;;;;;;;;5068922;28;19920;-71
2023/08/11 15:44:52;;;;;;;;;;;;;;;;;;5061051;28;20287;-71
2023/08/11 15:47:18;;;;;;;;;;;;;;;;;;5062414;28;19916;-72
2023/08/11 15:49:44;;;;;;;;;;;;;;;;;;5059871;28;19925;-70
2023/08/11 15:52:10;;;;;;;;;;;;;;;;;;5071367;28;19954;-71
2023/08/11 15:54:36;;;;;;;;;;;;;;;;;;5062571;28;19921;-71
2023/08/11 15:57:02;;;;;;;;;;;;;;;;;;5070926;28;19920;-70
2023/08/11 15:59:27;;;;;;;;;;;;;;;;;;5070033;28;20317;-70
2023/08/11 16:01:54;;;;;;;;;;;;;;;;;;5068298;28;19956;-71
2023/08/11 16:04:20;;;;;;;;;;;;;;;;;;5070637;28;20408;-71
2023/08/11 16:06:46;;;;;;;;;;;;;;;;;;5070326;28;20003;-71
2023/08/11 16:09:12;;;;;;;;;;;;;;;;;;5071656;28;19960;-71
2023/08/11 16:11:43;;;;;;;;;;;;;;;;;;5070804;28;19913;-70
2023/08/11 16:14:09;;;;;;;;;;;;;;;;;;5071324;28;19955;-71
2023/08/11 16:16:35;;;;;;;;;;;;;;;;;;5071661;28;19955;-71
2023/08/11 16:19:01;;;;;;;;;;;;;;;;;;5067002;28;19976;-71
2023/08/11 16:21:27;;;;;;;;;;;;;;;;;;5069652;28;20692;-71
2023/08/11 16:23:53;;;;;;;;;;;;;;;;;;5071073;28;19912;-71
2023/08/11 16:26:18;;;;;;;;;;;;;;;;;;5070801;28;19976;-70
2023/08/11 16:28:44;;;;;;;;;;;;;;;;;;5070740;28;19912;-71
2023/08/11 16:31:12;;;;;;;;;;;;;;;;;;5070770;28;19928;-72
2023/08/11 16:33:38;;;;;;;;;;;;;;;;;;5075259;28;19928;-71
2023/08/11 16:36:04;;;;;;;;;;;;;;;;;;5075095;28;20057;-71
2023/08/11 16:38:30;;;;;;;;;;;;;;;;;;5070221;28;19963;-70